sensor_id;sensor_type;location;lat;lon;timestamp;pressure;altitude;pressure_sealevel;temperature;humidity
59194;BME280;44967;48.598;15.650;2024-01-11T00:00:16;99412.81;;;-7.62;80.59
59194;BME280;44967;48.598;15.650;2024-01-11T00:02:42;99411.69;;;-7.67;81.11
59194;BME280;44967;48.598;15.650;2024-01-11T00:05:09;99403.59;;;-7.88;80.87
59194;BME280;44967;48.598;15.650;2024-01-11T00:07:35;99407.84;;;-7.88;80.96
59194;BME280;44967;48.598;15.650;2024-01-11T00:10:01;99402.47;;;-7.78;81.17
59194;BME280;44967;48.598;15.650;2024-01-11T00:12:27;99408.91;;;-7.85;80.66
59194;BME280;44967;48.598;15.650;2024-01-11T00:14:53;99409.97;;;-7.96;80.65
59194;BME280;44967;48.598;15.650;2024-01-11T00:17:19;99408.19;;;-7.97;80.37
59194;BME280;44967;48.598;15.650;2024-01-11T00:19:45;99412.53;;;-7.81;82.07
59194;BME280;44967;48.598;15.650;2024-01-11T00:22:11;99412.25;;;-7.86;81.45
59194;BME280;44967;48.598;15.650;2024-01-11T00:24:36;99408.22;;;-7.82;81.44
59194;BME280;44967;48.598;15.650;2024-01-11T00:27:02;99400.16;;;-7.74;81.39
59194;BME280;44967;48.598;15.650;2024-01-11T00:29:28;99397.34;;;-7.78;81.23
59194;BME280;44967;48.598;15.650;2024-01-11T00:31:54;99404.31;;;-7.76;81.43
59194;BME280;44967;48.598;15.650;2024-01-11T00:34:21;99400.59;;;-7.81;80.68
59194;BME280;44967;48.598;15.650;2024-01-11T00:36:47;99417.94;;;-7.91;80.66
59194;BME280;44967;48.598;15.650;2024-01-11T00:39:13;99413.31;;;-7.97;81.29
59194;BME280;44967;48.598;15.650;2024-01-11T00:41:39;99412.78;;;-8.06;80.76
59194;BME280;44967;48.598;15.650;2024-01-11T00:44:04;99407.06;;;-8.02;81.34
59194;BME280;44967;48.598;15.650;2024-01-11T00:46:30;99409.22;;;-8.08;80.89
59194;BME280;44967;48.598;15.650;2024-01-11T00:48:56;99403.38;;;-8.20;80.96
59194;BME280;44967;48.598;15.650;2024-01-11T00:51:22;99408.66;;;-8.17;81.30
59194;BME280;44967;48.598;15.650;2024-01-11T00:53:47;99409.41;;;-8.05;81.15
59194;BME280;44967;48.598;15.650;2024-01-11T00:56:19;99402.88;;;-8.15;80.82
59194;BME280;44967;48.598;15.650;2024-01-11T00:58:46;99402.03;;;-8.14;81.86
59194;BME280;44967;48.598;15.650;2024-01-11T01:01:12;99400.94;;;-8.04;81.44
59194;BME280;44967;48.598;15.650;2024-01-11T01:03:39;99407.56;;;-8.07;81.38
59194;BME280;44967;48.598;15.650;2024-01-11T01:06:05;99397.19;;;-8.09;80.67
59194;BME280;44967;48.598;15.650;2024-01-11T01:08:31;99405.72;;;-7.95;80.95
59194;BME280;44967;48.598;15.650;2024-01-11T01:10:56;99398.66;;;-7.99;80.20
59194;BME280;44967;48.598;15.650;2024-01-11T01:13:22;99404.28;;;-8.05;80.95
59194;BME280;44967;48.598;15.650;2024-01-11T01:15:48;99401.91;;;-8.02;81.00
59194;BME280;44967;48.598;15.650;2024-01-11T01:18:14;99405.56;;;-7.84;81.27
59194;BME280;44967;48.598;15.650;2024-01-11T01:20:40;99402.44;;;-7.93;81.04
59194;BME280;44967;48.598;15.650;2024-01-11T01:23:06;99401.72;;;-8.05;81.19
59194;BME280;44967;48.598;15.650;2024-01-11T01:25:31;99402.53;;;-8.06;81.11
59194;BME280;44967;48.598;15.650;2024-01-11T01:28:00;99397.63;;;-8.16;81.84
59194;BME280;44967;48.598;15.650;2024-01-11T01:30:27;99403.06;;;-7.97;81.42
59194;BME280;44967;48.598;15.650;2024-01-11T01:32:53;99400.88;;;-7.91;81.15
59194;BME280;44967;48.598;15.650;2024-01-11T01:35:19;99404.47;;;-8.02;80.39
59194;BME280;44967;48.598;15.650;2024-01-11T01:37:45;99401.47;;;-7.95;80.67
59194;BME280;44967;48.598;15.650;2024-01-11T01:40:12;99387.22;;;-8.04;80.51
59194;BME280;44967;48.598;15.650;2024-01-11T01:42:45;99399.59;;;-7.97;80.23
59194;BME280;44967;48.598;15.650;2024-01-11T01:45:11;99392.13;;;-7.94;81.05
59194;BME280;44967;48.598;15.650;2024-01-11T01:47:41;99398.13;;;-7.79;80.53
59194;BME280;44967;48.598;15.650;2024-01-11T01:50:10;99401.81;;;-7.89;80.66
59194;BME280;44967;48.598;15.650;2024-01-11T01:52:36;99405.78;;;-7.94;80.60
59194;BME280;44967;48.598;15.650;2024-01-11T01:55:04;99407.34;;;-7.83;80.61
59194;BME280;44967;48.598;15.650;2024-01-11T01:57:32;99404.94;;;-7.94;79.71
59194;BME280;44967;48.598;15.650;2024-01-11T02:00:00;99402.88;;;-7.85;80.26
59194;BME280;44967;48.598;15.650;2024-01-11T02:02:28;99408.00;;;-8.00;80.34
59194;BME280;44967;48.598;15.650;2024-01-11T02:04:56;99413.31;;;-7.97;79.87
59194;BME280;44967;48.598;15.650;2024-01-11T02:07:22;99410.91;;;-8.08;79.52
59194;BME280;44967;48.598;15.650;2024-01-11T02:09:49;99398.66;;;-7.99;79.62
59194;BME280;44967;48.598;15.650;2024-01-11T02:12:15;99400.31;;;-8.00;79.52
59194;BME280;44967;48.598;15.650;2024-01-11T02:14:42;99380.59;;;-8.01;79.06
59194;BME280;44967;48.598;15.650;2024-01-11T02:17:08;99385.19;;;-8.10;78.76
59194;BME280;44967;48.598;15.650;2024-01-11T02:19:33;99372.44;;;-8.23;78.52
59194;BME280;44967;48.598;15.650;2024-01-11T02:22:02;99380.84;;;-8.26;79.20
59194;BME280;44967;48.598;15.650;2024-01-11T02:24:31;99371.66;;;-8.22;79.82
59194;BME280;44967;48.598;15.650;2024-01-11T02:26:58;99370.34;;;-8.30;79.69
59194;BME280;44967;48.598;15.650;2024-01-11T02:29:25;99367.31;;;-8.23;79.77
59194;BME280;44967;48.598;15.650;2024-01-11T02:31:51;99363.53;;;-8.15;79.57
59194;BME280;44967;48.598;15.650;2024-01-11T02:34:18;99369.69;;;-8.26;79.58
59194;BME280;44967;48.598;15.650;2024-01-11T02:36:44;99365.22;;;-8.30;79.49
59194;BME280;44967;48.598;15.650;2024-01-11T02:39:11;99356.78;;;-8.28;79.88
59194;BME280;44967;48.598;15.650;2024-01-11T02:41:37;99355.84;;;-8.15;79.79
59194;BME280;44967;48.598;15.650;2024-01-11T02:44:04;99353.78;;;-8.21;79.69
59194;BME280;44967;48.598;15.650;2024-01-11T02:46:30;99364.31;;;-8.16;80.40
59194;BME280;44967;48.598;15.650;2024-01-11T02:48:56;99353.50;;;-8.25;78.67
59194;BME280;44967;48.598;15.650;2024-01-11T02:51:21;99349.91;;;-8.29;79.02
59194;BME280;44967;48.598;15.650;2024-01-11T02:53:47;99351.75;;;-8.26;78.54
59194;BME280;44967;48.598;15.650;2024-01-11T02:56:13;99353.44;;;-8.41;78.10
59194;BME280;44967;48.598;15.650;2024-01-11T02:58:38;99356.31;;;-8.50;78.18
59194;BME280;44967;48.598;15.650;2024-01-11T03:01:04;99343.09;;;-8.43;77.83
59194;BME280;44967;48.598;15.650;2024-01-11T03:03:30;99340.25;;;-8.47;78.02
59194;BME280;44967;48.598;15.650;2024-01-11T03:05:56;99332.38;;;-8.50;77.91
59194;BME280;44967;48.598;15.650;2024-01-11T03:08:22;99336.44;;;-8.54;78.12
59194;BME280;44967;48.598;15.650;2024-01-11T03:10:48;99332.13;;;-8.40;77.65
59194;BME280;44967;48.598;15.650;2024-01-11T03:13:13;99326.72;;;-8.45;77.75
59194;BME280;44967;48.598;15.650;2024-01-11T03:15:39;99320.47;;;-8.35;77.25
59194;BME280;44967;48.598;15.650;2024-01-11T03:18:05;99324.75;;;-8.49;77.09
59194;BME280;44967;48.598;15.650;2024-01-11T03:20:30;99318.44;;;-8.69;77.32
59194;BME280;44967;48.598;15.650;2024-01-11T03:22:56;99333.41;;;-8.62;77.18
59194;BME280;44967;48.598;15.650;2024-01-11T03:25:22;99325.63;;;-8.63;77.99
59194;BME280;44967;48.598;15.650;2024-01-11T03:27:47;99315.94;;;-8.54;77.82
59194;BME280;44967;48.598;15.650;2024-01-11T03:30:13;99321.41;;;-8.63;77.21
59194;BME280;44967;48.598;15.650;2024-01-11T03:32:40;99322.75;;;-8.54;77.14
59194;BME280;44967;48.598;15.650;2024-01-11T03:35:09;99325.19;;;-8.56;77.24
59194;BME280;44967;48.598;15.650;2024-01-11T03:37:35;99312.31;;;-8.57;76.92
59194;BME280;44967;48.598;15.650;2024-01-11T03:40:02;99316.59;;;-8.71;77.26
59194;BME280;44967;48.598;15.650;2024-01-11T03:42:29;99318.09;;;-8.75;77.47
59194;BME280;44967;48.598;15.650;2024-01-11T03:44:55;99309.81;;;-8.71;77.03
59194;BME280;44967;48.598;15.650;2024-01-11T03:47:21;99307.13;;;-8.72;77.42
59194;BME280;44967;48.598;15.650;2024-01-11T03:49:47;99303.97;;;-8.68;77.54
59194;BME280;44967;48.598;15.650;2024-01-11T03:52:12;99299.72;;;-8.68;77.97
59194;BME280;44967;48.598;15.650;2024-01-11T03:54:38;99297.50;;;-8.76;78.17
59194;BME280;44967;48.598;15.650;2024-01-11T03:57:04;99300.31;;;-8.86;77.32
59194;BME280;44967;48.598;15.650;2024-01-11T03:59:30;99298.31;;;-8.77;78.33
59194;BME280;44967;48.598;15.650;2024-01-11T04:01:59;99302.22;;;-8.69;78.31
59194;BME280;44967;48.598;15.650;2024-01-11T04:04:24;99303.63;;;-8.74;78.00
59194;BME280;44967;48.598;15.650;2024-01-11T04:06:51;99306.47;;;-8.70;77.78
59194;BME280;44967;48.598;15.650;2024-01-11T04:09:20;99296.38;;;-8.94;76.99
59194;BME280;44967;48.598;15.650;2024-01-11T04:11:46;99304.97;;;-8.94;77.05
59194;BME280;44967;48.598;15.650;2024-01-11T04:14:12;99303.44;;;-9.05;77.88
59194;BME280;44967;48.598;15.650;2024-01-11T04:16:41;99303.38;;;-8.92;78.66
59194;BME280;44967;48.598;15.650;2024-01-11T04:19:08;99300.91;;;-8.90;78.03
59194;BME280;44967;48.598;15.650;2024-01-11T04:21:34;99290.84;;;-8.87;77.93
59194;BME280;44967;48.598;15.650;2024-01-11T04:24:00;99290.97;;;-8.99;77.17
59194;BME280;44967;48.598;15.650;2024-01-11T04:26:26;99303.09;;;-9.37;77.96
59194;BME280;44967;48.598;15.650;2024-01-11T04:28:52;99303.19;;;-9.49;79.48
59194;BME280;44967;48.598;15.650;2024-01-11T04:31:18;99307.31;;;-9.25;79.56
59194;BME280;44967;48.598;15.650;2024-01-11T04:33:46;99306.03;;;-9.31;78.82
59194;BME280;44967;48.598;15.650;2024-01-11T04:36:12;99307.25;;;-9.12;78.18
59194;BME280;44967;48.598;15.650;2024-01-11T04:38:39;99311.41;;;-9.14;78.20
59194;BME280;44967;48.598;15.650;2024-01-11T04:41:11;99320.34;;;-9.07;77.82
59194;BME280;44967;48.598;15.650;2024-01-11T04:43:39;99329.66;;;-8.94;77.11
59194;BME280;44967;48.598;15.650;2024-01-11T04:46:18;99332.34;;;-8.93;76.80
59194;BME280;44967;48.598;15.650;2024-01-11T04:48:45;99328.25;;;-9.17;76.83
59194;BME280;44967;48.598;15.650;2024-01-11T04:51:15;99332.00;;;-9.25;77.69
59194;BME280;44967;48.598;15.650;2024-01-11T04:53:42;99336.22;;;-9.26;77.49
59194;BME280;44967;48.598;15.650;2024-01-11T04:56:10;99342.25;;;-9.38;77.72
59194;BME280;44967;48.598;15.650;2024-01-11T04:58:39;99339.69;;;-9.38;77.70
59194;BME280;44967;48.598;15.650;2024-01-11T05:01:06;99331.59;;;-9.31;77.61
59194;BME280;44967;48.598;15.650;2024-01-11T05:03:32;99330.63;;;-9.33;77.26
59194;BME280;44967;48.598;15.650;2024-01-11T05:05:58;99323.94;;;-9.31;77.46
59194;BME280;44967;48.598;15.650;2024-01-11T05:08:25;99326.38;;;-9.20;76.96
59194;BME280;44967;48.598;15.650;2024-01-11T05:10:51;99332.31;;;-9.21;76.06
59194;BME280;44967;48.598;15.650;2024-01-11T05:13:18;99326.28;;;-9.21;75.57
59194;BME280;44967;48.598;15.650;2024-01-11T05:15:44;99330.63;;;-9.33;76.28
59194;BME280;44967;48.598;15.650;2024-01-11T05:18:11;99315.88;;;-9.37;76.59
59194;BME280;44967;48.598;15.650;2024-01-11T05:20:37;99327.66;;;-9.39;76.34
59194;BME280;44967;48.598;15.650;2024-01-11T05:23:03;99334.09;;;-9.33;75.82
59194;BME280;44967;48.598;15.650;2024-01-11T05:25:30;99333.97;;;-9.21;76.51
59194;BME280;44967;48.598;15.650;2024-01-11T05:28:00;99336.31;;;-9.11;76.63
59194;BME280;44967;48.598;15.650;2024-01-11T05:30:26;99340.69;;;-9.36;75.88
59194;BME280;44967;48.598;15.650;2024-01-11T05:32:52;99344.91;;;-9.37;76.50
59194;BME280;44967;48.598;15.650;2024-01-11T05:35:18;99337.13;;;-9.25;77.05
59194;BME280;44967;48.598;15.650;2024-01-11T05:37:44;99350.31;;;-9.45;75.82
59194;BME280;44967;48.598;15.650;2024-01-11T05:40:10;99350.03;;;-9.37;77.15
59194;BME280;44967;48.598;15.650;2024-01-11T05:42:35;99339.91;;;-9.48;76.98
59194;BME280;44967;48.598;15.650;2024-01-11T05:45:04;99344.81;;;-9.38;77.19
59194;BME280;44967;48.598;15.650;2024-01-11T05:47:30;99336.53;;;-9.34;76.07
59194;BME280;44967;48.598;15.650;2024-01-11T05:49:56;99330.94;;;-9.29;76.21
59194;BME280;44967;48.598;15.650;2024-01-11T05:52:22;99328.38;;;-9.55;76.15
59194;BME280;44967;48.598;15.650;2024-01-11T05:54:47;99320.09;;;-9.51;77.06
59194;BME280;44967;48.598;15.650;2024-01-11T05:57:13;99323.16;;;-9.43;76.20
59194;BME280;44967;48.598;15.650;2024-01-11T05:59:45;99331.41;;;-9.47;76.13
59194;BME280;44967;48.598;15.650;2024-01-11T06:02:12;99330.38;;;-9.64;76.48
59194;BME280;44967;48.598;15.650;2024-01-11T06:04:39;99314.50;;;-9.59;76.94
59194;BME280;44967;48.598;15.650;2024-01-11T06:07:06;99311.34;;;-9.55;76.51
59194;BME280;44967;48.598;15.650;2024-01-11T06:09:32;99326.53;;;-9.44;76.14
59194;BME280;44967;48.598;15.650;2024-01-11T06:11:57;99324.44;;;-9.37;76.50
59194;BME280;44967;48.598;15.650;2024-01-11T06:14:23;99318.63;;;-9.34;75.80
59194;BME280;44967;48.598;15.650;2024-01-11T06:16:49;99318.91;;;-9.43;75.82
59194;BME280;44967;48.598;15.650;2024-01-11T06:19:14;99310.19;;;-9.46;75.42
59194;BME280;44967;48.598;15.650;2024-01-11T06:21:40;99303.38;;;-9.46;75.80
59194;BME280;44967;48.598;15.650;2024-01-11T06:24:06;99314.69;;;-9.56;76.18
59194;BME280;44967;48.598;15.650;2024-01-11T06:26:32;99323.19;;;-9.57;76.08
59194;BME280;44967;48.598;15.650;2024-01-11T06:28:57;99342.03;;;-9.55;76.66
59194;BME280;44967;48.598;15.650;2024-01-11T06:31:24;99347.75;;;-9.45;76.73
59194;BME280;44967;48.598;15.650;2024-01-11T06:33:50;99351.19;;;-9.58;75.80
59194;BME280;44967;48.598;15.650;2024-01-11T06:36:15;99359.66;;;-9.46;75.70
59194;BME280;44967;48.598;15.650;2024-01-11T06:38:41;99365.00;;;-9.56;76.20
59194;BME280;44967;48.598;15.650;2024-01-11T06:41:07;99375.50;;;-9.65;76.32
59194;BME280;44967;48.598;15.650;2024-01-11T06:43:32;99383.38;;;-9.62;76.27
59194;BME280;44967;48.598;15.650;2024-01-11T06:46:05;99379.75;;;-9.52;76.06
59194;BME280;44967;48.598;15.650;2024-01-11T06:48:32;99376.97;;;-9.55;76.47
59194;BME280;44967;48.598;15.650;2024-01-11T06:50:58;99388.69;;;-9.72;76.10
59194;BME280;44967;48.598;15.650;2024-01-11T06:53:23;99393.09;;;-9.69;76.04
59194;BME280;44967;48.598;15.650;2024-01-11T06:55:49;99389.63;;;-9.96;77.02
59194;BME280;44967;48.598;15.650;2024-01-11T06:58:17;99379.19;;;-9.86;76.88
59194;BME280;44967;48.598;15.650;2024-01-11T07:00:46;99374.50;;;-9.80;76.58
59194;BME280;44967;48.598;15.650;2024-01-11T07:03:11;99368.88;;;-9.74;76.07
59194;BME280;44967;48.598;15.650;2024-01-11T07:05:37;99372.94;;;-9.51;76.33
59194;BME280;44967;48.598;15.650;2024-01-11T07:08:03;99382.41;;;-9.37;76.02
59194;BME280;44967;48.598;15.650;2024-01-11T07:10:30;99382.19;;;-9.27;75.86
59194;BME280;44967;48.598;15.650;2024-01-11T07:12:56;99377.06;;;-9.27;75.67
59194;BME280;44967;48.598;15.650;2024-01-11T07:15:21;99373.72;;;-9.39;75.03
59194;BME280;44967;48.598;15.650;2024-01-11T07:17:47;99368.53;;;-9.41;75.03
59194;BME280;44967;48.598;15.650;2024-01-11T07:20:13;99379.66;;;-9.40;75.06
59194;BME280;44967;48.598;15.650;2024-01-11T07:22:40;99386.16;;;-9.32;75.64
59194;BME280;44967;48.598;15.650;2024-01-11T07:25:06;99370.75;;;-9.19;76.16
59194;BME280;44967;48.598;15.650;2024-01-11T07:27:32;99363.38;;;-9.15;75.61
59194;BME280;44967;48.598;15.650;2024-01-11T07:29:58;99370.19;;;-9.28;74.66
59194;BME280;44967;48.598;15.650;2024-01-11T07:32:23;99377.88;;;-9.28;75.19
59194;BME280;44967;48.598;15.650;2024-01-11T07:34:49;99368.31;;;-9.18;75.37
59194;BME280;44967;48.598;15.650;2024-01-11T07:37:15;99361.00;;;-9.12;75.41
59194;BME280;44967;48.598;15.650;2024-01-11T07:39:41;99366.00;;;-9.00;76.06
59194;BME280;44967;48.598;15.650;2024-01-11T07:42:07;99383.84;;;-9.01;76.36
59194;BME280;44967;48.598;15.650;2024-01-11T07:44:33;99390.53;;;-8.90;76.83
59194;BME280;44967;48.598;15.650;2024-01-11T07:46:59;99385.50;;;-8.89;76.23
59194;BME280;44967;48.598;15.650;2024-01-11T07:49:25;99394.28;;;-8.98;76.15
59194;BME280;44967;48.598;15.650;2024-01-11T07:51:51;99393.44;;;-8.84;76.73
59194;BME280;44967;48.598;15.650;2024-01-11T07:54:17;99405.34;;;-8.72;76.60
59194;BME280;44967;48.598;15.650;2024-01-11T07:56:43;99406.69;;;-8.64;76.35
59194;BME280;44967;48.598;15.650;2024-01-11T07:59:08;99404.16;;;-8.64;76.06
59194;BME280;44967;48.598;15.650;2024-01-11T08:01:38;99399.81;;;-8.65;76.48
59194;BME280;44967;48.598;15.650;2024-01-11T08:04:04;99400.63;;;-8.66;76.62
59194;BME280;44967;48.598;15.650;2024-01-11T08:06:30;99413.38;;;-8.52;77.01
59194;BME280;44967;48.598;15.650;2024-01-11T08:08:55;99411.66;;;-8.39;77.31
59194;BME280;44967;48.598;15.650;2024-01-11T08:11:21;99413.69;;;-8.33;77.07
59194;BME280;44967;48.598;15.650;2024-01-11T08:13:47;99403.66;;;-8.30;77.92
59194;BME280;44967;48.598;15.650;2024-01-11T08:16:18;99408.31;;;-8.23;77.36
59194;BME280;44967;48.598;15.650;2024-01-11T08:18:45;99405.72;;;-8.10;77.61
59194;BME280;44967;48.598;15.650;2024-01-11T08:21:11;99409.84;;;-7.97;78.01
59194;BME280;44967;48.598;15.650;2024-01-11T08:23:39;99416.94;;;-7.93;78.33
59194;BME280;44967;48.598;15.650;2024-01-11T08:26:11;99413.34;;;-7.82;77.75
59194;BME280;44967;48.598;15.650;2024-01-11T08:28:38;99396.03;;;-7.72;77.75
59194;BME280;44967;48.598;15.650;2024-01-11T08:31:03;99391.41;;;-7.77;76.91
59194;BME280;44967;48.598;15.650;2024-01-11T08:33:30;99395.66;;;-7.78;76.70
59194;BME280;44967;48.598;15.650;2024-01-11T08:35:57;99393.00;;;-7.65;76.71
59194;BME280;44967;48.598;15.650;2024-01-11T08:38:23;99383.13;;;-7.58;76.69
59194;BME280;44967;48.598;15.650;2024-01-11T08:40:50;99377.69;;;-7.48;77.06
59194;BME280;44967;48.598;15.650;2024-01-11T08:43:16;99368.75;;;-7.40;77.35
59194;BME280;44967;48.598;15.650;2024-01-11T08:45:42;99367.50;;;-7.32;77.41
59194;BME280;44967;48.598;15.650;2024-01-11T08:48:09;99360.38;;;-7.22;76.82
59194;BME280;44967;48.598;15.650;2024-01-11T08:50:35;99342.50;;;-7.20;77.49
59194;BME280;44967;48.598;15.650;2024-01-11T08:53:01;99343.97;;;-7.09;77.06
59194;BME280;44967;48.598;15.650;2024-01-11T08:55:26;99343.78;;;-6.97;77.61
59194;BME280;44967;48.598;15.650;2024-01-11T08:57:52;99345.06;;;-6.89;76.59
59194;BME280;44967;48.598;15.650;2024-01-11T09:00:18;99341.47;;;-6.77;77.21
59194;BME280;44967;48.598;15.650;2024-01-11T09:02:44;99338.59;;;-6.67;77.00
59194;BME280;44967;48.598;15.650;2024-01-11T09:05:10;99335.00;;;-6.54;77.00
59194;BME280;44967;48.598;15.650;2024-01-11T09:07:35;99332.19;;;-6.42;76.78
59194;BME280;44967;48.598;15.650;2024-01-11T09:10:01;99319.41;;;-6.41;76.82
59194;BME280;44967;48.598;15.650;2024-01-11T09:12:26;99313.38;;;-6.41;76.79
59194;BME280;44967;48.598;15.650;2024-01-11T09:14:52;99302.59;;;-6.34;76.46
59194;BME280;44967;48.598;15.650;2024-01-11T09:17:17;99296.03;;;-6.29;76.34
59194;BME280;44967;48.598;15.650;2024-01-11T09:19:43;99300.97;;;-6.16;76.67
59194;BME280;44967;48.598;15.650;2024-01-11T09:22:09;99286.09;;;-6.05;76.57
59194;BME280;44967;48.598;15.650;2024-01-11T09:24:36;99278.59;;;-6.01;76.87
59194;BME280;44967;48.598;15.650;2024-01-11T09:27:02;99271.03;;;-5.98;77.28
59194;BME280;44967;48.598;15.650;2024-01-11T09:29:30;99264.44;;;-5.93;77.42
59194;BME280;44967;48.598;15.650;2024-01-11T09:31:55;99263.03;;;-5.86;77.57
59194;BME280;44967;48.598;15.650;2024-01-11T09:34:21;99264.50;;;-5.74;77.38
59194;BME280;44967;48.598;15.650;2024-01-11T09:36:47;99262.19;;;-5.67;77.64
59194;BME280;44967;48.598;15.650;2024-01-11T09:39:13;99260.88;;;-5.59;77.58
59194;BME280;44967;48.598;15.650;2024-01-11T09:41:42;99259.56;;;-5.51;76.53
59194;BME280;44967;48.598;15.650;2024-01-11T09:44:17;99251.47;;;-5.59;76.20
59194;BME280;44967;48.598;15.650;2024-01-11T09:46:43;99260.06;;;-5.41;76.21
59194;BME280;44967;48.598;15.650;2024-01-11T09:49:10;99275.38;;;-5.26;76.24
59194;BME280;44967;48.598;15.650;2024-01-11T09:51:37;99279.31;;;-5.33;75.87
59194;BME280;44967;48.598;15.650;2024-01-11T09:54:05;99273.28;;;-5.33;75.58
59194;BME280;44967;48.598;15.650;2024-01-11T09:56:32;99259.25;;;-5.22;75.71
59194;BME280;44967;48.598;15.650;2024-01-11T09:58:58;99252.41;;;-5.21;75.36
59194;BME280;44967;48.598;15.650;2024-01-11T10:01:24;99256.25;;;-5.12;75.92
59194;BME280;44967;48.598;15.650;2024-01-11T10:03:52;99252.94;;;-5.09;75.46
59194;BME280;44967;48.598;15.650;2024-01-11T10:06:19;99250.44;;;-5.08;75.24
59194;BME280;44967;48.598;15.650;2024-01-11T10:08:46;99262.13;;;-4.97;75.33
59194;BME280;44967;48.598;15.650;2024-01-11T10:11:11;99263.09;;;-4.95;74.62
59194;BME280;44967;48.598;15.650;2024-01-11T10:13:37;99263.28;;;-4.90;74.90
59194;BME280;44967;48.598;15.650;2024-01-11T10:16:11;99252.44;;;-4.64;74.77
59194;BME280;44967;48.598;15.650;2024-01-11T10:18:39;99257.00;;;-4.58;73.78
59194;BME280;44967;48.598;15.650;2024-01-11T10:21:05;99245.84;;;-4.57;74.02
59194;BME280;44967;48.598;15.650;2024-01-11T10:23:34;99241.56;;;-4.57;74.21
59194;BME280;44967;48.598;15.650;2024-01-11T10:26:00;99252.66;;;-4.59;74.30
59194;BME280;44967;48.598;15.650;2024-01-11T10:28:26;99248.59;;;-4.34;74.06
59194;BME280;44967;48.598;15.650;2024-01-11T10:30:52;99240.66;;;-4.19;73.03
59194;BME280;44967;48.598;15.650;2024-01-11T10:33:22;99236.16;;;-4.04;73.38
59194;BME280;44967;48.598;15.650;2024-01-11T10:35:49;99232.09;;;-3.97;73.56
59194;BME280;44967;48.598;15.650;2024-01-11T10:38:15;99226.13;;;-3.96;72.91
59194;BME280;44967;48.598;15.650;2024-01-11T10:40:42;99211.06;;;-3.86;72.44
59194;BME280;44967;48.598;15.650;2024-01-11T10:43:10;99199.34;;;-3.77;73.07
59194;BME280;44967;48.598;15.650;2024-01-11T10:45:42;99196.44;;;-3.64;72.97
59194;BME280;44967;48.598;15.650;2024-01-11T10:48:15;99198.97;;;-3.66;72.92
59194;BME280;44967;48.598;15.650;2024-01-11T10:50:45;99194.56;;;-3.68;72.55
59194;BME280;44967;48.598;15.650;2024-01-11T10:55:55;99218.72;;;-3.46;72.64
59194;BME280;44967;48.598;15.650;2024-01-11T10:58:26;99222.84;;;-3.28;73.53
59194;BME280;44967;48.598;15.650;2024-01-11T11:00:53;99221.72;;;-3.13;72.77
59194;BME280;44967;48.598;15.650;2024-01-11T11:03:21;99210.34;;;-2.94;72.27
59194;BME280;44967;48.598;15.650;2024-01-11T11:05:48;99186.47;;;-2.87;72.83
59194;BME280;44967;48.598;15.650;2024-01-11T11:08:17;99193.53;;;-2.83;72.60
59194;BME280;44967;48.598;15.650;2024-01-11T11:10:45;99202.09;;;-2.84;72.44
59194;BME280;44967;48.598;15.650;2024-01-11T11:13:14;99197.16;;;-2.78;71.75
59194;BME280;44967;48.598;15.650;2024-01-11T11:15:45;99203.88;;;-2.83;70.81
59194;BME280;44967;48.598;15.650;2024-01-11T11:18:13;99193.75;;;-2.77;71.90
59194;BME280;44967;48.598;15.650;2024-01-11T11:20:39;99198.78;;;-2.80;70.39
59194;BME280;44967;48.598;15.650;2024-01-11T11:23:09;99201.56;;;-2.75;71.57
59194;BME280;44967;48.598;15.650;2024-01-11T11:25:40;99206.91;;;-2.71;72.73
59194;BME280;44967;48.598;15.650;2024-01-11T11:28:07;99206.97;;;-2.69;72.08
59194;BME280;44967;48.598;15.650;2024-01-11T11:30:40;99199.38;;;-2.65;72.83
59194;BME280;44967;48.598;15.650;2024-01-11T11:33:19;99184.94;;;-2.58;72.81
59194;BME280;44967;48.598;15.650;2024-01-11T11:35:46;99165.59;;;-2.44;71.51
59194;BME280;44967;48.598;15.650;2024-01-11T11:38:21;99165.59;;;-2.44;71.52
59194;BME280;44967;48.598;15.650;2024-01-11T11:40:48;99158.41;;;-2.27;71.44
59194;BME280;44967;48.598;15.650;2024-01-11T11:43:18;99160.22;;;-2.25;70.44
59194;BME280;44967;48.598;15.650;2024-01-11T11:45:46;99159.53;;;-2.19;70.57
59194;BME280;44967;48.598;15.650;2024-01-11T11:53:36;99136.06;;;-1.99;69.62
59194;BME280;44967;48.598;15.650;2024-01-11T11:56:03;99132.44;;;-2.04;68.08
59194;BME280;44967;48.598;15.650;2024-01-11T11:58:30;99132.91;;;-1.90;69.45
59194;BME280;44967;48.598;15.650;2024-01-11T12:01:00;99128.00;;;-1.81;69.26
59194;BME280;44967;48.598;15.650;2024-01-11T12:03:45;99131.53;;;-1.79;67.48
59194;BME280;44967;48.598;15.650;2024-01-11T12:06:19;99123.75;;;-1.79;67.08
59194;BME280;44967;48.598;15.650;2024-01-11T12:08:47;99120.34;;;-1.78;67.33
59194;BME280;44967;48.598;15.650;2024-01-11T12:11:15;99132.44;;;-1.77;66.97
59194;BME280;44967;48.598;15.650;2024-01-11T12:13:43;99128.22;;;-1.75;68.01
59194;BME280;44967;48.598;15.650;2024-01-11T12:16:11;99134.75;;;-1.59;69.23
59194;BME280;44967;48.598;15.650;2024-01-11T12:18:37;99139.28;;;-1.52;67.14
59194;BME280;44967;48.598;15.650;2024-01-11T12:21:04;99142.28;;;-1.38;66.97
59194;BME280;44967;48.598;15.650;2024-01-11T12:23:29;99138.97;;;-1.33;66.98
59194;BME280;44967;48.598;15.650;2024-01-11T12:25:57;99128.47;;;-1.37;67.06
59194;BME280;44967;48.598;15.650;2024-01-11T12:28:23;99125.94;;;-1.36;67.24
59194;BME280;44967;48.598;15.650;2024-01-11T12:30:49;99116.41;;;-1.37;68.04
59194;BME280;44967;48.598;15.650;2024-01-11T12:33:16;99124.47;;;-1.26;67.99
59194;BME280;44967;48.598;15.650;2024-01-11T12:35:43;99112.09;;;-1.36;66.54
59194;BME280;44967;48.598;15.650;2024-01-11T12:38:08;99131.88;;;-1.40;66.33
59194;BME280;44967;48.598;15.650;2024-01-11T12:40:37;99123.34;;;-1.36;67.09
59194;BME280;44967;48.598;15.650;2024-01-11T12:43:04;99119.81;;;-1.38;66.91
59194;BME280;44967;48.598;15.650;2024-01-11T12:45:32;99124.84;;;-1.44;66.72
59194;BME280;44967;48.598;15.650;2024-01-11T12:48:01;99109.44;;;-1.38;67.39
59194;BME280;44967;48.598;15.650;2024-01-11T12:50:30;99106.22;;;-1.31;66.56
59194;BME280;44967;48.598;15.650;2024-01-11T12:53:13;99102.69;;;-1.33;67.15
59194;BME280;44967;48.598;15.650;2024-01-11T12:55:45;99100.25;;;-1.28;66.59